Fure West — OZ2100 — position and weather

sailwx.info

Track history (hours):
 
Tides and Currents Weather Stations Pressure Air Temp Water Temp Dewpoint Dewpoint Depression Visibility Wind Speed Wind Dir Waves Ship Positions

Fure West

Last reported at 2017-Aug-23 02:00 UTC. Time now 2017-Aug-23 02:14 UTC.
Position N 57°46' E 010°34'.

Length 144 m; draft 6.3 m.

MMSI: 231775000.

Date/timePositionNaut miles runAvg speedWind from/ knotsBaromVisibWave heightAir tempDewpointWater temp
2017-Aug-23 02:00N 57°46' E 010°34'510.7
2017-Aug-23 01:30N 57°45' E 010°24'910.4
2017-Aug-23 00:39N 57°43' E 010°08'410.0
2017-Aug-23 00:18N 57°42' E 010°02'3 9.9
2017-Aug-23 00:00N 57°41' E 009°57'510.1
2017-Aug-22 23:29N 57°39' E 009°48'510.1
2017-Aug-22 23:00N 57°38' E 009°39'510.1
2017-Aug-22 22:30N 57°36' E 009°30'510.4
2017-Aug-22 22:00N 57°35' E 009°21'510.5
2017-Aug-22 21:29N 57°32' E 009°12'510.5
2017-Aug-22 21:00N 57°29' E 009°05'14510.5
2017-Aug-22 07:12N 55°30' E 006°34'2 7.7
2017-Aug-22 06:59N 55°29' E 006°33'4 8.0
2017-Aug-22 06:29N 55°26' E 006°29'12412.2
2017-Aug-21 20:17N 53°36' E 004°50'412.6
2017-Aug-21 19:59N 53°32' E 004°47'712.6
2017-Aug-21 19:27N 53°26' E 004°43'1512.0
2017-Aug-21 18:10N 53°12' E 004°32'212.1
2017-Aug-21 18:00N 53°10' E 004°30'612.0
2017-Aug-21 17:29N 53°05' E 004°26'612.1
2017-Aug-21 17:00N 52°60' E 004°21'611.8
2017-Aug-21 16:30N 52°54' E 004°17'612.3
2017-Aug-21 16:00N 52°49' E 004°13'611.8
2017-Aug-21 15:30N 52°44' E 004°08'510.7
2017-Aug-21 15:00N 52°40' E 004°14'611.2
2017-Aug-21 14:30N 52°35' E 004°20'510.1
2017-Aug-21 14:00N 52°31' E 004°22'0 0.3
2017-Aug-21 13:28N 52°30' E 004°22'0 0.1
2017-Aug-21 12:55N 52°30' E 004°22'0 0.1
2017-Aug-21 12:28N 52°30' E 004°22'0 0.1
2017-Aug-21 11:58N 52°30' E 004°22'0 0.1
2017-Aug-21 11:28N 52°30' E 004°22'0 0.0
2017-Aug-21 10:58N 52°30' E 004°22'0 0.0
2017-Aug-21 10:28N 52°30' E 004°22'0 0.0
2017-Aug-21 09:58N 52°30' E 004°22'0 0.0
2017-Aug-21 09:28N 52°30' E 004°22'0 0.0
2017-Aug-21 08:58N 52°30' E 004°22'0 0.0
2017-Aug-21 08:28N 52°30' E 004°22'0 0.0
2017-Aug-21 07:58N 52°30' E 004°22'0 0.0
2017-Aug-21 07:28N 52°30' E 004°22'0 0.0
2017-Aug-21 06:58N 52°30' E 004°22'0 0.0
2017-Aug-21 06:28N 52°30' E 004°22'0 0.2
2017-Aug-21 05:58N 52°30' E 004°22'0 0.1
2017-Aug-21 05:28N 52°30' E 004°22'0 0.0
2017-Aug-21 04:58N 52°30' E 004°22'0 0.0
2017-Aug-21 04:28N 52°30' E 004°22'0 0.0
2017-Aug-21 03:58N 52°30' E 004°22'0 0.0
2017-Aug-21 03:28N 52°30' E 004°22'0 0.0
2017-Aug-21 02:58N 52°30' E 004°22'0 0.0
2017-Aug-21 02:28N 52°30' E 004°22'0 0.0
2017-Aug-21 01:58N 52°30' E 004°22'0 0.0
2017-Aug-21 01:28N 52°30' E 004°22'0 0.1
2017-Aug-21 00:58N 52°30' E 004°22'1 1.3
2017-Aug-21 00:30N 52°31' E 004°23'4 8.7
2017-Aug-21 00:00N 52°29' E 004°29'5 9.3
2017-Aug-20 23:31N 52°28' E 004°37'1 1.4
2017-Aug-20 23:01N 52°28' E 004°38'4 7.9
2017-Aug-20 22:30N 52°26' E 004°43'2 4.5
2017-Aug-20 22:00N 52°25' E 004°46'0 0.0
2017-Aug-20 21:30N 52°25' E 004°46'0 0.0
2017-Aug-20 21:00N 52°25' E 004°46'0 0.0
2017-Aug-20 20:30N 52°25' E 004°46'0 0.0
2017-Aug-20 19:51N 52°25' E 004°46'0 0.0
2017-Aug-20 19:30N 52°25' E 004°46'0 0.0
2017-Aug-20 19:00N 52°25' E 004°46'0 0.0
2017-Aug-20 18:27N 52°25' E 004°46'0 0.0
2017-Aug-20 17:54N 52°25' E 004°46'0 0.0
2017-Aug-20 17:30N 52°25' E 004°46'0 0.0
2017-Aug-20 17:00N 52°25' E 004°46'0 0.0
2017-Aug-20 16:30N 52°25' E 004°46'0 0.0
2017-Aug-20 16:00N 52°25' E 004°46'0 0.0
2017-Aug-20 15:27N 52°25' E 004°46'0 0.0
2017-Aug-20 14:57N 52°25' E 004°46'0 0.0
2017-Aug-20 14:30N 52°25' E 004°46'0 0.0
2017-Aug-20 14:00N 52°25' E 004°46'0 0.0
2017-Aug-20 13:27N 52°25' E 004°46'0 0.0
2017-Aug-20 13:00N 52°25' E 004°46'0 0.0
2017-Aug-20 12:26N 52°25' E 004°46'0 0.0
2017-Aug-20 11:56N 52°25' E 004°46'0 0.0
2017-Aug-20 11:24N 52°25' E 004°46'0 0.0
2017-Aug-20 10:56N 52°25' E 004°46'0 0.0
2017-Aug-20 10:29N 52°25' E 004°46'0 0.0
2017-Aug-20 09:57N 52°25' E 004°46'0 0.0
2017-Aug-20 09:29N 52°25' E 004°46'0 0.0
2017-Aug-20 08:59N 52°25' E 004°46'0 0.0
2017-Aug-20 08:31N 52°25' E 004°46'0 0.6
2017-Aug-20 08:01N 52°25' E 004°47'0 0.1
2017-Aug-20 07:27N 52°25' E 004°47'0 0.0
2017-Aug-20 06:54N 52°25' E 004°47'0 0.0
2017-Aug-20 06:15N 52°25' E 004°47'0 0.0
2017-Aug-20 05:53N 52°25' E 004°47'0 0.0
2017-Aug-20 05:27N 52°25' E 004°47'0 0.0
2017-Aug-20 04:54N 52°25' E 004°47'0 0.0
2017-Aug-20 04:26N 52°25' E 004°47'0 0.0
2017-Aug-20 03:59N 52°25' E 004°47'0 0.0
2017-Aug-20 03:29N 52°25' E 004°47'0 0.0
2017-Aug-20 02:59N 52°25' E 004°47'0 0.0
2017-Aug-20 02:27N 52°25' E 004°47'0 0.0
2017-Aug-20 01:57N 52°25' E 004°47'0 0.0
2017-Aug-20 01:29N 52°25' E 004°47'0 0.0
2017-Aug-20 00:53N 52°25' E 004°47'0 0.0
2017-Aug-20 00:30N 52°25' E 004°47'0 0.0
2017-Aug-19 23:00N 52°25' E 004°47'0 0.0
2017-Aug-19 22:23N 52°25' E 004°47'0 0.0
2017-Aug-19 22:00N 52°25' E 004°47'0 0.0
2017-Aug-19 21:30N 52°25' E 004°47'0 0.0
2017-Aug-19 20:54N 52°25' E 004°47'0 0.0
2017-Aug-19 20:18N 52°25' E 004°47'0 0.0
2017-Aug-19 19:56N 52°25' E 004°47'0 0.0
2017-Aug-19 19:30N 52°25' E 004°47'0 0.0
2017-Aug-19 18:57N 52°25' E 004°47'0 0.0
2017-Aug-19 18:27N 52°25' E 004°47'0 0.0
2017-Aug-19 17:50N 52°25' E 004°47'0 0.0
2017-Aug-19 17:29N 52°25' E 004°47'0 0.0
2017-Aug-19 16:59N 52°25' E 004°47'0 0.0
2017-Aug-19 16:30N 52°25' E 004°47'0 0.0
2017-Aug-19 15:56N 52°25' E 004°47'0 0.0
2017-Aug-19 15:29N 52°25' E 004°47'0 0.0
2017-Aug-19 15:00N 52°25' E 004°47'0 0.0
2017-Aug-19 13:53N 52°25' E 004°47'0 0.0
2017-Aug-19 13:29N 52°25' E 004°47'0 0.0
2017-Aug-19 12:59N 52°25' E 004°47'0 0.0
2017-Aug-19 12:29N 52°25' E 004°47'0 0.0
2017-Aug-19 12:00N 52°25' E 004°47'0 0.0
2017-Aug-19 11:23N 52°25' E 004°47'0 0.0
2017-Aug-19 11:00N 52°25' E 004°47'0 0.0
2017-Aug-19 10:26N 52°25' E 004°47'1 2.3
2017-Aug-19 10:01N 52°26' E 004°46'4 8.1
2017-Aug-19 09:30N 52°28' E 004°40'2 4.3
2017-Aug-19 09:01N 52°28' E 004°37'0 0.1
2017-Aug-19 08:31N 52°28' E 004°36'3 5.1
2017-Aug-19 08:01N 52°28' E 004°32'611.6
2017-Aug-19 07:30N 52°28' E 004°23'510.3
2017-Aug-19 07:00N 52°29' E 004°14'3 6.3
2017-Aug-19 06:30N 52°28' E 004°09'0 0.3
2017-Aug-19 05:58N 52°28' E 004°10'0 0.0
2017-Aug-19 05:28N 52°28' E 004°10'0 0.1
2017-Aug-19 04:58N 52°28' E 004°10'0 0.0
2017-Aug-19 04:28N 52°28' E 004°10'0 0.1
2017-Aug-19 03:58N 52°28' E 004°10'0 0.1
2017-Aug-19 03:28N 52°28' E 004°10'0 0.0
2017-Aug-19 02:58N 52°28' E 004°10'0 0.0
2017-Aug-19 02:28N 52°28' E 004°10'0 0.0
2017-Aug-19 01:58N 52°28' E 004°10'0 0.0
2017-Aug-19 01:28N 52°28' E 004°10'0 0.1
2017-Aug-19 00:58N 52°28' E 004°10'0 0.0
2017-Aug-19 00:28N 52°28' E 004°10'0 0.0
2017-Aug-18 23:58N 52°28' E 004°10'0 0.0
2017-Aug-18 23:28N 52°28' E 004°10'0 0.0
2017-Aug-18 22:58N 52°28' E 004°10'0 0.0
2017-Aug-18 22:28N 52°28' E 004°10'0 0.1
2017-Aug-18 21:58N 52°28' E 004°10'0 0.0
2017-Aug-18 21:28N 52°28' E 004°10'0 0.0
2017-Aug-18 20:58N 52°28' E 004°10'0 0.1
2017-Aug-18 20:28N 52°28' E 004°10'0 0.1
2017-Aug-18 19:58N 52°28' E 004°10'0 0.1
2017-Aug-18 19:28N 52°28' E 004°10'0 0.1
2017-Aug-18 18:58N 52°28' E 004°10'0 0.0
2017-Aug-18 18:28N 52°28' E 004°10'0 0.1
2017-Aug-18 17:58N 52°28' E 004°10'0 0.1
2017-Aug-18 17:28N 52°28' E 004°10'0 0.0
2017-Aug-18 16:58N 52°28' E 004°10'0 0.1
2017-Aug-18 16:28N 52°28' E 004°10'0 0.0
2017-Aug-18 15:58N 52°28' E 004°10'0 0.0
2017-Aug-18 15:28N 52°28' E 004°10'0 0.0
2017-Aug-18 14:58N 52°28' E 004°10'0 0.0
2017-Aug-18 14:28N 52°28' E 004°10'0 0.0
2017-Aug-18 13:28N 52°28' E 004°10'0 0.0
2017-Aug-18 12:58N 52°28' E 004°10'0 0.0
2017-Aug-18 12:28N 52°28' E 004°10'0 0.0
2017-Aug-18 11:58N 52°28' E 004°10'0 0.0
2017-Aug-18 11:28N 52°28' E 004°10'0 0.0
2017-Aug-18 10:58N 52°28' E 004°10'0 0.0
2017-Aug-18 10:28N 52°28' E 004°10'0 0.0
2017-Aug-18 09:58N 52°28' E 004°10'0 0.0
2017-Aug-18 09:28N 52°28' E 004°10'0 0.0
2017-Aug-18 08:58N 52°28' E 004°10'0 0.0
2017-Aug-18 08:28N 52°28' E 004°10'0 0.1
2017-Aug-18 07:58N 52°28' E 004°10'0 0.0
2017-Aug-18 07:28N 52°28' E 004°10'0 0.0
2017-Aug-18 06:58N 52°28' E 004°10'0 0.0
2017-Aug-18 05:28N 52°28' E 004°10'0 0.0
2017-Aug-18 04:58N 52°28' E 004°10'0 0.1
2017-Aug-18 04:28N 52°28' E 004°10'0 0.0
2017-Aug-18 03:58N 52°28' E 004°10'0 0.0
2017-Aug-18 03:28N 52°28' E 004°10'0 0.0
2017-Aug-18 02:58N 52°28' E 004°10'0 0.0
2017-Aug-18 02:28N 52°28' E 004°10'0 0.0
2017-Aug-18 01:55N 52°28' E 004°10'0 0.0
2017-Aug-18 01:16N 52°28' E 004°10'0 0.0
2017-Aug-18 00:58N 52°28' E 004°10'0 0.0
2017-Aug-18 00:28N 52°28' E 004°10'0 0.0
2017-Aug-17 23:55N 52°28' E 004°10'0 0.0
2017-Aug-17 23:28N 52°28' E 004°10'0 0.0
2017-Aug-17 22:55N 52°28' E 004°10'0 0.0
2017-Aug-17 22:28N 52°28' E 004°10'0 0.0
2017-Aug-17 21:58N 52°28' E 004°10'0 0.0
2017-Aug-17 20:58N 52°28' E 004°10'0 0.0
2017-Aug-17 20:25N 52°28' E 004°10'0 0.0
2017-Aug-17 19:52N 52°28' E 004°10'0 0.0
2017-Aug-17 19:28N 52°28' E 004°10'0 0.0
2017-Aug-17 18:52N 52°28' E 004°10'0 0.0
2017-Aug-17 18:19N 52°28' E 004°10'0 0.0
2017-Aug-17 17:58N 52°28' E 004°10'0 0.0
2017-Aug-17 17:28N 52°28' E 004°10'0 0.0
2017-Aug-17 16:55N 52°28' E 004°10'0 0.0
2017-Aug-17 16:28N 52°28' E 004°10'0 0.0
2017-Aug-17 15:58N 52°28' E 004°10'0 0.0
2017-Aug-17 15:19N 52°28' E 004°10'0 0.0
2017-Aug-17 15:01N 52°28' E 004°10'0 0.0
2017-Aug-17 14:28N 52°28' E 004°10'0 0.0
2017-Aug-17 13:46N 52°28' E 004°10'0 0.0
2017-Aug-17 13:28N 52°28' E 004°10'0 0.0
2017-Aug-17 12:58N 52°28' E 004°10'0 0.0
2017-Aug-17 12:28N 52°28' E 004°10'0 0.0
2017-Aug-17 11:58N 52°28' E 004°10'0 0.0
2017-Aug-17 11:13N 52°28' E 004°10'0 0.0
2017-Aug-17 10:40N 52°28' E 004°10'0 0.0
2017-Aug-17 10:25N 52°28' E 004°10'0 0.0
2017-Aug-17 09:52N 52°28' E 004°10'0 0.0
2017-Aug-17 09:16N 52°28' E 004°10'0 0.1
2017-Aug-17 08:58N 52°28' E 004°10'0 0.0
2017-Aug-17 08:25N 52°28' E 004°10'0 0.0
2017-Aug-17 07:58N 52°28' E 004°10'0 0.0
2017-Aug-17 07:28N 52°28' E 004°10'0 0.1
2017-Aug-17 06:58N 52°28' E 004°09'0 0.2
2017-Aug-17 06:31N 52°28' E 004°09'0 0.1
2017-Aug-17 05:58N 52°28' E 004°09'0 0.0
2017-Aug-17 05:28N 52°28' E 004°09'0 0.0
2017-Aug-17 04:58N 52°28' E 004°09'0 0.0
2017-Aug-17 04:30N 52°28' E 004°09'0 0.0
2017-Aug-17 03:58N 52°28' E 004°09'0 0.0
2017-Aug-17 03:28N 52°28' E 004°09'0 0.1
2017-Aug-17 02:54N 52°28' E 004°09'0 0.1
2017-Aug-17 02:27N 52°28' E 004°09'0 0.1
2017-Aug-17 01:55N 52°28' E 004°09'0 0.1
2017-Aug-17 01:28N 52°28' E 004°09'0 0.1
2017-Aug-17 00:58N 52°28' E 004°10'0 0.0
2017-Aug-17 00:31N 52°28' E 004°10'0 0.0
2017-Aug-16 23:57N 52°28' E 004°10'0 0.0
2017-Aug-16 23:25N 52°28' E 004°10'0 0.0
2017-Aug-16 23:00N 52°28' E 004°10'0 0.0
2017-Aug-16 22:28N 52°28' E 004°10'0 0.0
2017-Aug-16 22:01N 52°28' E 004°10'0 0.1
2017-Aug-16 21:30N 52°28' E 004°09'0 0.5
2017-Aug-16 21:00N 52°28' E 004°09'4 8.0
2017-Aug-16 20:30N 52°28' E 004°03'713.3
2017-Aug-16 20:00N 52°27' E 003°52'713.3
2017-Aug-16 19:30N 52°27' E 003°41'713.0
2017-Aug-16 19:00N 52°29' E 003°30'612.8
2017-Aug-16 18:30N 52°31' E 003°21'612.2
2017-Aug-16 18:00N 52°34' E 003°12'713.1
2017-Aug-16 17:30N 52°40' E 003°13'1410.8
2017-Aug-16 16:10N 52°55' E 003°16'2 9.7
2017-Aug-16 16:00N 52°56' E 003°17'5 9.8
2017-Aug-16 15:28N 53°01' E 003°19'5 9.7
2017-Aug-16 15:00N 53°06' E 003°21'6 9.6
2017-Aug-16 14:23N 53°11' E 003°24'8611.2
2017-Aug-16 06:42N 54°06' E 005°17'8111.8
2017-Aug-15 23:47N 54°11' E 007°35'312.1
2017-Aug-15 23:30N 54°10' E 007°40'612.5
2017-Aug-15 23:00N 54°07' E 007°50'612.8
2017-Aug-15 22:30N 54°03' E 007°59'611.1
2017-Aug-15 22:00N 54°01' E 008°08'713.1
2017-Aug-15 21:30N 54°00' E 008°19'815.8
2017-Aug-15 21:00N 53°58' E 008°32'815.0
2017-Aug-15 20:30N 53°54' E 008°42'713.5
2017-Aug-15 20:00N 53°50' E 008°52'713.2
2017-Aug-15 19:31N 53°52' E 009°03'4 7.9
2017-Aug-15 19:00N 53°54' E 009°09'0 0.0
2017-Aug-15 18:30N 53°54' E 009°09'2 4.0
2017-Aug-15 18:00N 53°55' E 009°11'3 6.8
2017-Aug-15 17:30N 53°58' E 009°15'3 6.8
2017-Aug-15 17:00N 54°01' E 009°18'4 6.9
2017-Aug-15 16:30N 54°04' E 009°19'34 4.5
2017-Aug-15 08:56N 54°22' E 010°08'0 0.1
2017-Aug-15 08:29N 54°22' E 010°09'0 0.0
2017-Aug-15 08:00N 54°22' E 010°09'1 1.0
2017-Aug-15 07:30N 54°22' E 010°09'1 1.9
2017-Aug-15 07:00N 54°23' E 010°11'5 9.3
2017-Aug-15 06:30N 54°27' E 010°14'5 9.8
2017-Aug-15 06:00N 54°30' E 010°20'5 9.8
2017-Aug-15 05:30N 54°32' E 010°28'612.5
2017-Aug-15 05:00N 54°35' E 010°37'612.2
2017-Aug-15 04:31N 54°35' E 010°48'612.1
2017-Aug-15 04:00N 54°35' E 010°58'612.9
2017-Aug-15 03:31N 54°36' E 011°09'612.4
2017-Aug-15 03:00N 54°34' E 011°19'612.6
2017-Aug-15 02:30N 54°31' E 011°29'612.1
2017-Aug-15 02:00N 54°28' E 011°38'611.6
2017-Aug-15 01:30N 54°26' E 011°48'611.6
2017-Aug-15 01:00N 54°26' E 011°58'611.6
2017-Aug-15 00:31N 54°26' E 012°08'510.0
2017-Aug-15 00:01N 54°30' E 012°13'611.4
2017-Aug-14 23:30N 54°36' E 012°15'611.4
2017-Aug-14 22:58N 54°40' E 012°23'711.2
2017-Aug-14 22:22N 54°42' E 012°34'410.9
2017-Aug-14 22:00N 54°44' E 012°40'612.1
2017-Aug-14 21:30N 54°46' E 012°50'712.2
2017-Aug-14 20:58N 54°47' E 013°01'612.6
2017-Aug-14 20:30N 54°47' E 013°11'812.7
2017-Aug-14 19:52N 54°46' E 013°25'512.4
2017-Aug-14 19:28N 54°46' E 013°33'1212.1
2017-Aug-14 18:27N 54°43' E 013°54'512.2
2017-Aug-14 18:00N 54°41' E 014°03'712.4
2017-Aug-14 17:28N 54°39' E 014°14'612.4
2017-Aug-14 17:00N 54°38' E 014°24'1012.1
2017-Aug-14 16:09N 54°39' E 014°41'412.2
2017-Aug-14 15:49N 54°40' E 014°48'412.3
2017-Aug-14 15:28N 54°40' E 014°56'11010.9
2017-Aug-14 05:25N 54°58' E 018°03'511.4
2017-Aug-14 05:00N 54°58' E 018°11'611.2
2017-Aug-14 04:29N 54°58' E 018°21'511.4
2017-Aug-14 04:00N 54°58' E 018°31'612.0
2017-Aug-14 03:30N 54°56' E 018°41'612.1
2017-Aug-14 03:00N 54°54' E 018°51'611.9
2017-Aug-14 02:30N 54°52' E 019°01'611.7
2017-Aug-14 02:00N 54°51' E 019°10'611.7
2017-Aug-14 01:30N 54°49' E 019°20'611.8
2017-Aug-14 01:00N 54°47' E 019°30'611.6
2017-Aug-14 00:30N 54°45' E 019°39'16 0.8
2017-Aug-13 03:08N 54°39' E 020°06'1 6.3
2017-Aug-13 03:00N 54°39' E 020°04'4 8.1
2017-Aug-13 02:27N 54°38' E 019°57'  
Track history (hours):
 
Tides and Currents Weather Stations Pressure Air Temp Water Temp Dewpoint Dewpoint Depression Visibility Wind Speed Wind Dir Waves Ship Positions

Fure West

Last reported at 2017-Aug-23 02:00 UTC. Time now 2017-Aug-23 02:14 UTC.
Position N 57°46' E 010°34'.

Length 144 m; draft 6.3 m.

MMSI: 231775000.

Date/timePositionNaut miles runAvg speedWind from/ knotsBaromVisibWave heightAir tempDewpointWater temp
2017-Aug-23 02:00N 57°46' E 010°34'510.7
2017-Aug-23 01:30N 57°45' E 010°24'910.4
2017-Aug-23 00:39N 57°43' E 010°08'410.0
2017-Aug-23 00:18N 57°42' E 010°02'3 9.9
2017-Aug-23 00:00N 57°41' E 009°57'510.1
2017-Aug-22 23:29N 57°39' E 009°48'510.1
2017-Aug-22 23:00N 57°38' E 009°39'510.1
2017-Aug-22 22:30N 57°36' E 009°30'510.4
2017-Aug-22 22:00N 57°35' E 009°21'510.5
2017-Aug-22 21:29N 57°32' E 009°12'510.5
2017-Aug-22 21:00N 57°29' E 009°05'14510.5
2017-Aug-22 07:12N 55°30' E 006°34'2 7.7
2017-Aug-22 06:59N 55°29' E 006°33'4 8.0
2017-Aug-22 06:29N 55°26' E 006°29'12412.2
2017-Aug-21 20:17N 53°36' E 004°50'412.6
2017-Aug-21 19:59N 53°32' E 004°47'712.6
2017-Aug-21 19:27N 53°26' E 004°43'1512.0
2017-Aug-21 18:10N 53°12' E 004°32'212.1
2017-Aug-21 18:00N 53°10' E 004°30'612.0
2017-Aug-21 17:29N 53°05' E 004°26'612.1
2017-Aug-21 17:00N 52°60' E 004°21'611.8
2017-Aug-21 16:30N 52°54' E 004°17'612.3
2017-Aug-21 16:00N 52°49' E 004°13'611.8
2017-Aug-21 15:30N 52°44' E 004°08'510.7
2017-Aug-21 15:00N 52°40' E 004°14'611.2
2017-Aug-21 14:30N 52°35' E 004°20'510.1
2017-Aug-21 14:00N 52°31' E 004°22'0 0.3
2017-Aug-21 13:28N 52°30' E 004°22'0 0.1
2017-Aug-21 12:55N 52°30' E 004°22'0 0.1
2017-Aug-21 12:28N 52°30' E 004°22'0 0.1
2017-Aug-21 11:58N 52°30' E 004°22'0 0.1
2017-Aug-21 11:28N 52°30' E 004°22'0 0.0
2017-Aug-21 10:58N 52°30' E 004°22'0 0.0
2017-Aug-21 10:28N 52°30' E 004°22'0 0.0
2017-Aug-21 09:58N 52°30' E 004°22'0 0.0
2017-Aug-21 09:28N 52°30' E 004°22'0 0.0
2017-Aug-21 08:58N 52°30' E 004°22'0 0.0
2017-Aug-21 08:28N 52°30' E 004°22'0 0.0
2017-Aug-21 07:58N 52°30' E 004°22'0 0.0
2017-Aug-21 07:28N 52°30' E 004°22'0 0.0
2017-Aug-21 06:58N 52°30' E 004°22'0 0.0
2017-Aug-21 06:28N 52°30' E 004°22'0 0.2
2017-Aug-21 05:58N 52°30' E 004°22'0 0.1
2017-Aug-21 05:28N 52°30' E 004°22'0 0.0
2017-Aug-21 04:58N 52°30' E 004°22'0 0.0
2017-Aug-21 04:28N 52°30' E 004°22'0 0.0
2017-Aug-21 03:58N 52°30' E 004°22'0 0.0
2017-Aug-21 03:28N 52°30' E 004°22'0 0.0
2017-Aug-21 02:58N 52°30' E 004°22'0 0.0
2017-Aug-21 02:28N 52°30' E 004°22'0 0.0
2017-Aug-21 01:58N 52°30' E 004°22'0 0.0
2017-Aug-21 01:28N 52°30' E 004°22'0 0.1
2017-Aug-21 00:58N 52°30' E 004°22'1 1.3
2017-Aug-21 00:30N 52°31' E 004°23'4 8.7
2017-Aug-21 00:00N 52°29' E 004°29'5 9.3
2017-Aug-20 23:31N 52°28' E 004°37'1 1.4
2017-Aug-20 23:01N 52°28' E 004°38'4 7.9
2017-Aug-20 22:30N 52°26' E 004°43'2 4.5
2017-Aug-20 22:00N 52°25' E 004°46'0 0.0
2017-Aug-20 21:30N 52°25' E 004°46'0 0.0
2017-Aug-20 21:00N 52°25' E 004°46'0 0.0
2017-Aug-20 20:30N 52°25' E 004°46'0 0.0
2017-Aug-20 19:51N 52°25' E 004°46'0 0.0
2017-Aug-20 19:30N 52°25' E 004°46'0 0.0
2017-Aug-20 19:00N 52°25' E 004°46'0 0.0
2017-Aug-20 18:27N 52°25' E 004°46'0 0.0
2017-Aug-20 17:54N 52°25' E 004°46'0 0.0
2017-Aug-20 17:30N 52°25' E 004°46'0 0.0
2017-Aug-20 17:00N 52°25' E 004°46'0 0.0
2017-Aug-20 16:30N 52°25' E 004°46'0 0.0
2017-Aug-20 16:00N 52°25' E 004°46'0 0.0
2017-Aug-20 15:27N 52°25' E 004°46'0 0.0
2017-Aug-20 14:57N 52°25' E 004°46'0 0.0
2017-Aug-20 14:30N 52°25' E 004°46'0 0.0
2017-Aug-20 14:00N 52°25' E 004°46'0 0.0
2017-Aug-20 13:27N 52°25' E 004°46'0 0.0
2017-Aug-20 13:00N 52°25' E 004°46'0 0.0
2017-Aug-20 12:26N 52°25' E 004°46'0 0.0
2017-Aug-20 11:56N 52°25' E 004°46'0 0.0
2017-Aug-20 11:24N 52°25' E 004°46'0 0.0
2017-Aug-20 10:56N 52°25' E 004°46'0 0.0
2017-Aug-20 10:29N 52°25' E 004°46'0 0.0
2017-Aug-20 09:57N 52°25' E 004°46'0 0.0
2017-Aug-20 09:29N 52°25' E 004°46'0 0.0
2017-Aug-20 08:59N 52°25' E 004°46'0 0.0
2017-Aug-20 08:31N 52°25' E 004°46'0 0.6
2017-Aug-20 08:01N 52°25' E 004°47'0 0.1
2017-Aug-20 07:27N 52°25' E 004°47'0 0.0
2017-Aug-20 06:54N 52°25' E 004°47'0 0.0
2017-Aug-20 06:15N 52°25' E 004°47'0 0.0
2017-Aug-20 05:53N 52°25' E 004°47'0 0.0
2017-Aug-20 05:27N 52°25' E 004°47'0 0.0
2017-Aug-20 04:54N 52°25' E 004°47'0 0.0
2017-Aug-20 04:26N 52°25' E 004°47'0 0.0
2017-Aug-20 03:59N 52°25' E 004°47'0 0.0
2017-Aug-20 03:29N 52°25' E 004°47'0 0.0
2017-Aug-20 02:59N 52°25' E 004°47'0 0.0
2017-Aug-20 02:27N 52°25' E 004°47'0 0.0
2017-Aug-20 01:57N 52°25' E 004°47'0 0.0
2017-Aug-20 01:29N 52°25' E 004°47'0 0.0
2017-Aug-20 00:53N 52°25' E 004°47'0 0.0
2017-Aug-20 00:30N 52°25' E 004°47'0 0.0
2017-Aug-19 23:00N 52°25' E 004°47'0 0.0
2017-Aug-19 22:23N 52°25' E 004°47'0 0.0
2017-Aug-19 22:00N 52°25' E 004°47'0 0.0
2017-Aug-19 21:30N 52°25' E 004°47'0 0.0
2017-Aug-19 20:54N 52°25' E 004°47'0 0.0
2017-Aug-19 20:18N 52°25' E 004°47'0 0.0
2017-Aug-19 19:56N 52°25' E 004°47'0 0.0
2017-Aug-19 19:30N 52°25' E 004°47'0 0.0
2017-Aug-19 18:57N 52°25' E 004°47'0 0.0
2017-Aug-19 18:27N 52°25' E 004°47'0 0.0
2017-Aug-19 17:50N 52°25' E 004°47'0 0.0
2017-Aug-19 17:29N 52°25' E 004°47'0 0.0
2017-Aug-19 16:59N 52°25' E 004°47'0 0.0
2017-Aug-19 16:30N 52°25' E 004°47'0 0.0
2017-Aug-19 15:56N 52°25' E 004°47'0 0.0
2017-Aug-19 15:29N 52°25' E 004°47'0 0.0
2017-Aug-19 15:00N 52°25' E 004°47'0 0.0
2017-Aug-19 13:53N 52°25' E 004°47'0 0.0
2017-Aug-19 13:29N 52°25' E 004°47'0 0.0
2017-Aug-19 12:59N 52°25' E 004°47'0 0.0
2017-Aug-19 12:29N 52°25' E 004°47'0 0.0
2017-Aug-19 12:00N 52°25' E 004°47'0 0.0
2017-Aug-19 11:23N 52°25' E 004°47'0 0.0
2017-Aug-19 11:00N 52°25' E 004°47'0 0.0
2017-Aug-19 10:26N 52°25' E 004°47'1 2.3
2017-Aug-19 10:01N 52°26' E 004°46'4 8.1
2017-Aug-19 09:30N 52°28' E 004°40'2 4.3
2017-Aug-19 09:01N 52°28' E 004°37'0 0.1
2017-Aug-19 08:31N 52°28' E 004°36'3 5.1
2017-Aug-19 08:01N 52°28' E 004°32'611.6
2017-Aug-19 07:30N 52°28' E 004°23'510.3
2017-Aug-19 07:00N 52°29' E 004°14'3 6.3
2017-Aug-19 06:30N 52°28' E 004°09'0 0.3
2017-Aug-19 05:58N 52°28' E 004°10'0 0.0
2017-Aug-19 05:28N 52°28' E 004°10'0 0.1
2017-Aug-19 04:58N 52°28' E 004°10'0 0.0
2017-Aug-19 04:28N 52°28' E 004°10'0 0.1
2017-Aug-19 03:58N 52°28' E 004°10'0 0.1
2017-Aug-19 03:28N 52°28' E 004°10'0 0.0
2017-Aug-19 02:58N 52°28' E 004°10'0 0.0
2017-Aug-19 02:28N 52°28' E 004°10'0 0.0
2017-Aug-19 01:58N 52°28' E 004°10'0 0.0
2017-Aug-19 01:28N 52°28' E 004°10'0 0.1
2017-Aug-19 00:58N 52°28' E 004°10'0 0.0
2017-Aug-19 00:28N 52°28' E 004°10'0 0.0
2017-Aug-18 23:58N 52°28' E 004°10'0 0.0
2017-Aug-18 23:28N 52°28' E 004°10'0 0.0
2017-Aug-18 22:58N 52°28' E 004°10'0 0.0
2017-Aug-18 22:28N 52°28' E 004°10'0 0.1
2017-Aug-18 21:58N 52°28' E 004°10'0 0.0
2017-Aug-18 21:28N 52°28' E 004°10'0 0.0
2017-Aug-18 20:58N 52°28' E 004°10'0 0.1
2017-Aug-18 20:28N 52°28' E 004°10'0 0.1
2017-Aug-18 19:58N 52°28' E 004°10'0 0.1
2017-Aug-18 19:28N 52°28' E 004°10'0 0.1
2017-Aug-18 18:58N 52°28' E 004°10'0 0.0
2017-Aug-18 18:28N 52°28' E 004°10'0 0.1
2017-Aug-18 17:58N 52°28' E 004°10'0 0.1
2017-Aug-18 17:28N 52°28' E 004°10'0 0.0
2017-Aug-18 16:58N 52°28' E 004°10'0 0.1
2017-Aug-18 16:28N 52°28' E 004°10'0 0.0
2017-Aug-18 15:58N 52°28' E 004°10'0 0.0
2017-Aug-18 15:28N 52°28' E 004°10'0 0.0
2017-Aug-18 14:58N 52°28' E 004°10'0 0.0
2017-Aug-18 14:28N 52°28' E 004°10'0 0.0
2017-Aug-18 13:28N 52°28' E 004°10'0 0.0
2017-Aug-18 12:58N 52°28' E 004°10'0 0.0
2017-Aug-18 12:28N 52°28' E 004°10'0 0.0
2017-Aug-18 11:58N 52°28' E 004°10'0 0.0
2017-Aug-18 11:28N 52°28' E 004°10'0 0.0
2017-Aug-18 10:58N 52°28' E 004°10'0 0.0
2017-Aug-18 10:28N 52°28' E 004°10'0 0.0
2017-Aug-18 09:58N 52°28' E 004°10'0 0.0
2017-Aug-18 09:28N 52°28' E 004°10'0 0.0
2017-Aug-18 08:58N 52°28' E 004°10'0 0.0
2017-Aug-18 08:28N 52°28' E 004°10'0 0.1
2017-Aug-18 07:58N 52°28' E 004°10'0 0.0
2017-Aug-18 07:28N 52°28' E 004°10'0 0.0
2017-Aug-18 06:58N 52°28' E 004°10'0 0.0
2017-Aug-18 05:28N 52°28' E 004°10'0 0.0
2017-Aug-18 04:58N 52°28' E 004°10'0 0.1
2017-Aug-18 04:28N 52°28' E 004°10'0 0.0
2017-Aug-18 03:58N 52°28' E 004°10'0 0.0
2017-Aug-18 03:28N 52°28' E 004°10'0 0.0
2017-Aug-18 02:58N 52°28' E 004°10'0 0.0
2017-Aug-18 02:28N 52°28' E 004°10'0 0.0
2017-Aug-18 01:55N 52°28' E 004°10'0 0.0
2017-Aug-18 01:16N 52°28' E 004°10'0 0.0
2017-Aug-18 00:58N 52°28' E 004°10'0 0.0
2017-Aug-18 00:28N 52°28' E 004°10'0 0.0
2017-Aug-17 23:55N 52°28' E 004°10'0 0.0
2017-Aug-17 23:28N 52°28' E 004°10'0 0.0
2017-Aug-17 22:55N 52°28' E 004°10'0 0.0
2017-Aug-17 22:28N 52°28' E 004°10'0 0.0
2017-Aug-17 21:58N 52°28' E 004°10'0 0.0
2017-Aug-17 20:58N 52°28' E 004°10'0 0.0
2017-Aug-17 20:25N 52°28' E 004°10'0 0.0
2017-Aug-17 19:52N 52°28' E 004°10'0 0.0
2017-Aug-17 19:28N 52°28' E 004°10'0 0.0
2017-Aug-17 18:52N 52°28' E 004°10'0 0.0
2017-Aug-17 18:19N 52°28' E 004°10'0 0.0
2017-Aug-17 17:58N 52°28' E 004°10'0 0.0
2017-Aug-17 17:28N 52°28' E 004°10'0 0.0
2017-Aug-17 16:55N 52°28' E 004°10'0 0.0
2017-Aug-17 16:28N 52°28' E 004°10'0 0.0
2017-Aug-17 15:58N 52°28' E 004°10'0 0.0
2017-Aug-17 15:19N 52°28' E 004°10'0 0.0
2017-Aug-17 15:01N 52°28' E 004°10'0 0.0
2017-Aug-17 14:28N 52°28' E 004°10'0 0.0
2017-Aug-17 13:46N 52°28' E 004°10'0 0.0
2017-Aug-17 13:28N 52°28' E 004°10'0 0.0
2017-Aug-17 12:58N 52°28' E 004°10'0 0.0
2017-Aug-17 12:28N 52°28' E 004°10'0 0.0
2017-Aug-17 11:58N 52°28' E 004°10'0 0.0
2017-Aug-17 11:13N 52°28' E 004°10'0 0.0
2017-Aug-17 10:40N 52°28' E 004°10'0 0.0
2017-Aug-17 10:25N 52°28' E 004°10'0 0.0
2017-Aug-17 09:52N 52°28' E 004°10'0 0.0
2017-Aug-17 09:16N 52°28' E 004°10'0 0.1
2017-Aug-17 08:58N 52°28' E 004°10'0 0.0
2017-Aug-17 08:25N 52°28' E 004°10'0 0.0
2017-Aug-17 07:58N 52°28' E 004°10'0 0.0
2017-Aug-17 07:28N 52°28' E 004°10'0 0.1
2017-Aug-17 06:58N 52°28' E 004°09'0 0.2
2017-Aug-17 06:31N 52°28' E 004°09'0 0.1
2017-Aug-17 05:58N 52°28' E 004°09'0 0.0
2017-Aug-17 05:28N 52°28' E 004°09'0 0.0
2017-Aug-17 04:58N 52°28' E 004°09'0 0.0
2017-Aug-17 04:30N 52°28' E 004°09'0 0.0
2017-Aug-17 03:58N 52°28' E 004°09'0 0.0
2017-Aug-17 03:28N 52°28' E 004°09'0 0.1
2017-Aug-17 02:54N 52°28' E 004°09'0 0.1
2017-Aug-17 02:27N 52°28' E 004°09'0 0.1
2017-Aug-17 01:55N 52°28' E 004°09'0 0.1
2017-Aug-17 01:28N 52°28' E 004°09'0 0.1
2017-Aug-17 00:58N 52°28' E 004°10'0 0.0
2017-Aug-17 00:31N 52°28' E 004°10'0 0.0
2017-Aug-16 23:57N 52°28' E 004°10'0 0.0
2017-Aug-16 23:25N 52°28' E 004°10'0 0.0
2017-Aug-16 23:00N 52°28' E 004°10'0 0.0
2017-Aug-16 22:28N 52°28' E 004°10'0 0.0
2017-Aug-16 22:01N 52°28' E 004°10'0 0.1
2017-Aug-16 21:30N 52°28' E 004°09'0 0.5
2017-Aug-16 21:00N 52°28' E 004°09'4 8.0
2017-Aug-16 20:30N 52°28' E 004°03'713.3
2017-Aug-16 20:00N 52°27' E 003°52'713.3
2017-Aug-16 19:30N 52°27' E 003°41'713.0
2017-Aug-16 19:00N 52°29' E 003°30'612.8
2017-Aug-16 18:30N 52°31' E 003°21'612.2
2017-Aug-16 18:00N 52°34' E 003°12'713.1
2017-Aug-16 17:30N 52°40' E 003°13'1410.8
2017-Aug-16 16:10N 52°55' E 003°16'2 9.7
2017-Aug-16 16:00N 52°56' E 003°17'5 9.8
2017-Aug-16 15:28N 53°01' E 003°19'5 9.7
2017-Aug-16 15:00N 53°06' E 003°21'6 9.6
2017-Aug-16 14:23N 53°11' E 003°24'8611.2
2017-Aug-16 06:42N 54°06' E 005°17'8111.8
2017-Aug-15 23:47N 54°11' E 007°35'312.1
2017-Aug-15 23:30N 54°10' E 007°40'612.5
2017-Aug-15 23:00N 54°07' E 007°50'612.8
2017-Aug-15 22:30N 54°03' E 007°59'611.1
2017-Aug-15 22:00N 54°01' E 008°08'713.1
2017-Aug-15 21:30N 54°00' E 008°19'815.8
2017-Aug-15 21:00N 53°58' E 008°32'815.0
2017-Aug-15 20:30N 53°54' E 008°42'713.5
2017-Aug-15 20:00N 53°50' E 008°52'713.2
2017-Aug-15 19:31N 53°52' E 009°03'4 7.9
2017-Aug-15 19:00N 53°54' E 009°09'0 0.0
2017-Aug-15 18:30N 53°54' E 009°09'2 4.0
2017-Aug-15 18:00N 53°55' E 009°11'3 6.8
2017-Aug-15 17:30N 53°58' E 009°15'3 6.8
2017-Aug-15 17:00N 54°01' E 009°18'4 6.9
2017-Aug-15 16:30N 54°04' E 009°19'34 4.5
2017-Aug-15 08:56N 54°22' E 010°08'0 0.1
2017-Aug-15 08:29N 54°22' E 010°09'0 0.0
2017-Aug-15 08:00N 54°22' E 010°09'1 1.0
2017-Aug-15 07:30N 54°22' E 010°09'1 1.9
2017-Aug-15 07:00N 54°23' E 010°11'5 9.3
2017-Aug-15 06:30N 54°27' E 010°14'5 9.8
2017-Aug-15 06:00N 54°30' E 010°20'5 9.8
2017-Aug-15 05:30N 54°32' E 010°28'612.5
2017-Aug-15 05:00N 54°35' E 010°37'612.2
2017-Aug-15 04:31N 54°35' E 010°48'612.1
2017-Aug-15 04:00N 54°35' E 010°58'612.9
2017-Aug-15 03:31N 54°36' E 011°09'612.4
2017-Aug-15 03:00N 54°34' E 011°19'612.6
2017-Aug-15 02:30N 54°31' E 011°29'612.1
2017-Aug-15 02:00N 54°28' E 011°38'611.6
2017-Aug-15 01:30N 54°26' E 011°48'611.6
2017-Aug-15 01:00N 54°26' E 011°58'611.6
2017-Aug-15 00:31N 54°26' E 012°08'510.0
2017-Aug-15 00:01N 54°30' E 012°13'611.4
2017-Aug-14 23:30N 54°36' E 012°15'611.4
2017-Aug-14 22:58N 54°40' E 012°23'711.2
2017-Aug-14 22:22N 54°42' E 012°34'410.9
2017-Aug-14 22:00N 54°44' E 012°40'612.1
2017-Aug-14 21:30N 54°46' E 012°50'712.2
2017-Aug-14 20:58N 54°47' E 013°01'612.6
2017-Aug-14 20:30N 54°47' E 013°11'812.7
2017-Aug-14 19:52N 54°46' E 013°25'512.4
2017-Aug-14 19:28N 54°46' E 013°33'1212.1
2017-Aug-14 18:27N 54°43' E 013°54'512.2
2017-Aug-14 18:00N 54°41' E 014°03'712.4
2017-Aug-14 17:28N 54°39' E 014°14'612.4
2017-Aug-14 17:00N 54°38' E 014°24'1012.1
2017-Aug-14 16:09N 54°39' E 014°41'412.2
2017-Aug-14 15:49N 54°40' E 014°48'412.3
2017-Aug-14 15:28N 54°40' E 014°56'11010.9
2017-Aug-14 05:25N 54°58' E 018°03'511.4
2017-Aug-14 05:00N 54°58' E 018°11'611.2
2017-Aug-14 04:29N 54°58' E 018°21'511.4
2017-Aug-14 04:00N 54°58' E 018°31'612.0
2017-Aug-14 03:30N 54°56' E 018°41'612.1
2017-Aug-14 03:00N 54°54' E 018°51'611.9
2017-Aug-14 02:30N 54°52' E 019°01'611.7
2017-Aug-14 02:00N 54°51' E 019°10'611.7
2017-Aug-14 01:30N 54°49' E 019°20'611.8
2017-Aug-14 01:00N 54°47' E 019°30'611.6
2017-Aug-14 00:30N 54°45' E 019°39'16 0.8
2017-Aug-13 03:08N 54°39' E 020°06'1 6.3
2017-Aug-13 03:00N 54°39' E 020°04'4 8.1
2017-Aug-13 02:27N 54°38' E 019°57'  

Dump ship's entire track history